createdAt,value
2019-01-15T00:01:48.518Z,16.87
2019-01-15T00:04:17.146Z,24.23
2019-01-15T00:06:45.963Z,27.98
2019-01-15T00:09:14.626Z,25.08
2019-01-15T00:11:43.203Z,25.80
2019-01-15T00:14:11.799Z,22.50
2019-01-15T00:16:40.646Z,16.12
2019-01-15T00:19:09.272Z,31.07
2019-01-15T00:21:38.134Z,17.98
2019-01-15T00:24:06.749Z,21.70
2019-01-15T00:26:35.363Z,22.35
2019-01-15T00:29:04.087Z,23.38
2019-01-15T00:31:32.956Z,19.70
2019-01-15T00:34:22.172Z,19.70
2019-01-15T00:36:57.593Z,29.15
2019-01-15T00:39:32.181Z,24.02
2019-01-15T00:42:05.708Z,28.55
2019-01-15T00:44:34.314Z,30.12
2019-01-15T00:47:02.909Z,21.90
2019-01-15T00:49:31.527Z,21.37
2019-01-15T00:52:00.362Z,22.55
2019-01-15T00:54:29.225Z,25.75
2019-01-15T00:56:57.814Z,22.80
2019-01-15T00:59:26.447Z,25.00
2019-01-15T01:01:55.051Z,28.65
2019-01-15T01:04:23.676Z,30.48
2019-01-15T01:06:52.343Z,24.57
2019-01-15T01:09:21.647Z,24.98
2019-01-15T01:11:50.280Z,33.25
2019-01-15T01:14:18.967Z,25.32
2019-01-15T01:16:47.571Z,17.92
2019-01-15T01:19:16.247Z,17.80
2019-01-15T01:21:44.834Z,24.00
2019-01-15T01:24:13.443Z,22.55
2019-01-15T01:26:42.275Z,15.05
2019-01-15T01:29:10.883Z,20.45
2019-01-15T01:31:39.499Z,26.35
2019-01-15T01:34:08.171Z,27.13
2019-01-15T01:36:36.762Z,27.05
2019-01-15T01:39:07.620Z,22.80
2019-01-15T01:41:36.216Z,23.77
2019-01-15T01:44:05.085Z,15.48
2019-01-15T01:46:33.683Z,41.08
2019-01-15T01:49:02.756Z,20.68
2019-01-15T01:51:31.355Z,26.37
2019-01-15T01:53:59.967Z,13.00
2019-01-15T01:56:28.567Z,25.60
2019-01-15T01:58:57.411Z,20.80
2019-01-15T02:01:26.017Z,22.37
2019-01-15T02:03:54.618Z,27.82
2019-01-15T02:06:24.883Z,19.90
2019-01-15T02:08:53.591Z,28.75
2019-01-15T02:11:22.178Z,32.08
2019-01-15T02:13:50.780Z,18.62
2019-01-15T02:16:19.429Z,21.27
2019-01-15T02:18:48.039Z,16.55
2019-01-15T02:21:16.683Z,23.18
2019-01-15T02:23:45.299Z,22.10
2019-01-15T02:26:13.894Z,28.83
2019-01-15T02:28:42.503Z,21.50
2019-01-15T02:31:11.111Z,16.73
2019-01-15T02:33:39.727Z,15.15
2019-01-15T02:36:08.323Z,17.17
2019-01-15T02:38:37.215Z,21.17
2019-01-15T02:41:05.816Z,17.27
2019-01-15T02:43:34.413Z,11.80
2019-01-15T02:46:03.036Z,36.93
2019-01-15T02:48:31.633Z,17.87
2019-01-15T02:51:00.326Z,25.97
2019-01-15T02:53:28.923Z,25.57
2019-01-15T02:55:57.568Z,15.48
2019-01-15T02:58:26.171Z,20.40
2019-01-15T03:00:54.791Z,19.48
2019-01-15T03:03:23.471Z,24.13
2019-01-15T03:05:52.247Z,20.27
2019-01-15T03:08:20.830Z,23.07
2019-01-15T03:10:49.452Z,15.23
2019-01-15T03:13:18.270Z,21.37
2019-01-15T03:15:46.894Z,18.27
2019-01-15T03:18:15.480Z,18.90
2019-01-15T03:20:44.095Z,14.40
2019-01-15T03:23:12.689Z,13.28
2019-01-15T03:25:41.313Z,19.92
2019-01-15T03:28:09.899Z,19.73
2019-01-15T03:30:38.520Z,28.90
2019-01-15T03:33:07.139Z,29.60
2019-01-15T03:35:35.829Z,19.15
2019-01-15T03:38:04.567Z,20.17
2019-01-15T03:40:33.254Z,21.48
2019-01-15T03:43:03.860Z,20.23
2019-01-15T03:45:32.266Z,19.98
2019-01-15T03:48:00.858Z,27.00
2019-01-15T03:50:29.490Z,12.33
2019-01-15T03:52:58.079Z,21.40
2019-01-15T03:55:26.751Z,18.77
2019-01-15T03:57:55.394Z,17.37
2019-01-15T04:00:25.607Z,17.73
2019-01-15T04:02:54.879Z,12.45
2019-01-15T04:05:23.577Z,15.90
2019-01-15T04:07:58.979Z,28.97
2019-01-15T04:10:27.875Z,13.60
2019-01-15T04:12:56.782Z,20.50
2019-01-15T04:15:25.494Z,21.30
2019-01-15T04:17:54.342Z,15.83
2019-01-15T04:20:22.965Z,19.55
2019-01-15T04:22:51.547Z,20.07
2019-01-15T04:25:20.152Z,15.97
2019-01-15T04:27:48.862Z,13.55
2019-01-15T04:30:21.802Z,12.33
2019-01-15T04:32:50.406Z,15.25
2019-01-15T04:35:19.309Z,15.83
2019-01-15T04:37:47.907Z,10.85
2019-01-15T04:40:18.776Z,22.98
2019-01-15T04:42:47.435Z,9.17
2019-01-15T04:45:17.790Z,24.33
2019-01-15T04:47:46.505Z,16.10
2019-01-15T04:50:16.008Z,20.85
2019-01-15T04:52:47.923Z,11.78
2019-01-15T04:55:16.603Z,11.28
2019-01-15T04:57:45.201Z,7.00
2019-01-15T05:00:15.992Z,13.28
2019-01-15T05:02:44.931Z,14.80
2019-01-15T05:05:13.758Z,13.53
2019-01-15T05:07:42.477Z,23.40
2019-01-15T05:10:12.351Z,13.55
2019-01-15T05:12:41.272Z,22.10
2019-01-15T05:15:13.098Z,12.00
2019-01-15T05:17:41.778Z,9.13
2019-01-15T05:20:11.887Z,19.20
2019-01-15T05:22:40.595Z,20.67
2019-01-15T05:25:11.811Z,12.53
2019-01-15T05:27:40.423Z,17.70
2019-01-15T05:30:12.960Z,23.05
2019-01-15T05:32:41.567Z,15.63
2019-01-15T05:35:10.458Z,21.37
2019-01-15T05:37:39.071Z,17.77
2019-01-15T05:40:08.799Z,18.00
2019-01-15T05:42:37.426Z,17.17
2019-01-15T05:45:07.850Z,18.70
2019-01-15T05:47:36.622Z,11.13
2019-01-15T05:50:06.052Z,16.35
2019-01-15T05:52:34.638Z,9.77
2019-01-15T05:55:03.304Z,13.43
2019-01-15T05:57:31.906Z,17.30
2019-01-15T06:00:00.516Z,10.50
2019-01-15T06:02:29.114Z,10.50
2019-01-15T06:04:57.739Z,12.05
2019-01-15T06:07:33.489Z,8.10
2019-01-15T06:09:56.668Z,7.40
2019-01-15T06:12:25.271Z,14.87
2019-01-15T06:14:53.880Z,16.27
2019-01-15T06:17:22.471Z,10.87
2019-01-15T06:19:51.087Z,17.67
2019-01-15T06:22:19.729Z,9.35
2019-01-15T06:24:48.338Z,13.10
2019-01-15T06:27:16.942Z,11.80
2019-01-15T06:29:45.663Z,14.53
2019-01-15T06:32:14.279Z,10.40
2019-01-15T06:34:42.924Z,18.10
2019-01-15T06:37:11.556Z,15.33
2019-01-15T06:39:40.192Z,12.87
2019-01-15T06:42:08.863Z,11.67
2019-01-15T06:44:37.472Z,8.37
2019-01-15T06:47:06.075Z,13.70
2019-01-15T06:49:34.705Z,15.90
2019-01-15T06:52:03.307Z,16.93
2019-01-15T06:54:32.187Z,6.83
2019-01-15T06:57:01.230Z,16.57
2019-01-15T06:59:30.141Z,10.80
2019-01-15T07:01:58.745Z,13.40
2019-01-15T07:04:27.872Z,9.53
2019-01-15T07:06:56.471Z,19.83
2019-01-15T07:09:25.153Z,14.10
2019-01-15T07:11:53.852Z,12.23
2019-01-15T07:14:22.505Z,11.97
2019-01-15T07:16:51.137Z,16.63
2019-01-15T07:19:19.744Z,18.00
2019-01-15T07:21:48.831Z,16.20
2019-01-15T07:24:17.435Z,21.53
2019-01-15T07:26:46.084Z,16.35
2019-01-15T07:29:14.682Z,17.53
2019-01-15T07:31:43.320Z,18.77
2019-01-15T07:34:11.949Z,19.83
2019-01-15T07:36:40.642Z,35.27
2019-01-15T07:39:09.629Z,25.43
2019-01-15T07:41:38.241Z,22.33
2019-01-15T07:44:06.848Z,21.83
2019-01-15T07:46:35.455Z,29.93
2019-01-15T07:49:04.219Z,25.90
2019-01-15T07:51:32.819Z,33.07
2019-01-15T07:54:02.123Z,31.10
2019-01-15T07:56:30.733Z,32.53
2019-01-15T07:58:59.351Z,34.63
2019-01-15T08:01:28.045Z,34.53
2019-01-15T08:03:56.648Z,32.73
2019-01-15T08:06:25.355Z,37.70
2019-01-15T08:08:54.007Z,45.57
2019-01-15T08:11:23.138Z,40.23
2019-01-15T08:13:51.755Z,45.80
2019-01-15T08:16:20.403Z,34.47
2019-01-15T08:18:49.035Z,35.37
2019-01-15T08:21:17.927Z,35.90
2019-01-15T08:23:46.550Z,39.07
2019-01-15T08:26:15.169Z,32.23
2019-01-15T08:28:43.774Z,37.70
2019-01-15T08:31:12.420Z,39.47
2019-01-15T08:33:41.014Z,42.43
2019-01-15T08:36:09.627Z,34.37
2019-01-15T08:38:38.214Z,29.23
2019-01-15T08:41:06.856Z,43.03
2019-01-15T08:43:35.447Z,41.47
2019-01-15T08:46:04.151Z,34.27
2019-01-15T08:48:34.107Z,32.17
2019-01-15T08:51:03.806Z,33.47
2019-01-15T08:53:32.586Z,37.10
2019-01-15T08:56:01.370Z,36.33
2019-01-15T08:58:29.982Z,43.53
2019-01-15T09:00:58.623Z,42.90
2019-01-15T09:03:27.373Z,36.90
2019-01-15T09:05:56.019Z,39.47
2019-01-15T09:08:24.644Z,37.93
2019-01-15T09:10:53.403Z,42.10
2019-01-15T09:13:21.998Z,42.23
2019-01-15T09:15:50.837Z,37.03
2019-01-15T09:18:19.517Z,52.97
2019-01-15T09:20:48.139Z,37.47
2019-01-15T09:23:16.787Z,42.30
2019-01-15T09:25:45.638Z,39.00
2019-01-15T09:28:14.471Z,45.43
2019-01-15T09:30:43.257Z,47.13
2019-01-15T09:33:11.936Z,42.73
2019-01-15T09:35:40.587Z,38.53
2019-01-15T09:38:09.534Z,33.47
2019-01-15T09:40:38.152Z,48.17
2019-01-15T09:43:06.991Z,48.20
2019-01-15T09:45:35.582Z,43.07
2019-01-15T09:48:09.096Z,39.30
2019-01-15T09:50:37.798Z,41.60
2019-01-15T09:53:06.587Z,44.27
2019-01-15T09:55:35.569Z,44.73
2019-01-15T09:58:05.046Z,38.13
2019-01-15T10:00:33.686Z,41.43
2019-01-15T10:03:02.320Z,40.83
2019-01-15T10:05:31.013Z,58.83
2019-01-15T10:07:59.700Z,50.43
2019-01-15T10:10:28.399Z,41.27
2019-01-15T10:12:57.083Z,40.70
2019-01-15T10:15:25.774Z,53.03
2019-01-15T10:17:54.613Z,45.87
2019-01-15T10:20:23.308Z,53.73
2019-01-15T10:22:51.950Z,50.77
2019-01-15T10:25:27.898Z,49.80
2019-01-15T10:27:57.750Z,58.00
2019-01-15T10:30:39.101Z,54.17
2019-01-15T10:33:15.739Z,52.57
2019-01-15T10:35:53.066Z,61.27
2019-01-15T10:38:22.492Z,60.57
2019-01-15T10:40:51.766Z,62.60
2019-01-15T10:43:20.675Z,49.00
2019-01-15T10:45:49.323Z,61.90
2019-01-15T10:48:17.944Z,61.13
2019-01-15T10:50:46.579Z,53.67
2019-01-15T10:53:15.279Z,57.80
2019-01-15T10:55:45.243Z,58.80
2019-01-15T10:58:17.641Z,59.73
2019-01-15T11:00:44.147Z,54.27
2019-01-15T11:03:12.738Z,61.10
2019-01-15T11:05:41.428Z,51.20
2019-01-15T11:08:10.184Z,58.00
2019-01-15T11:10:39.813Z,62.70
2019-01-15T11:13:08.554Z,55.53
2019-01-15T11:15:43.098Z,57.53
2019-01-15T11:18:07.647Z,57.60
2019-01-15T11:20:36.279Z,58.33
2019-01-15T11:23:05.259Z,51.50
2019-01-15T11:25:33.871Z,59.17
2019-01-15T11:28:02.727Z,56.97
2019-01-15T11:30:31.335Z,62.33
2019-01-15T11:33:00.199Z,58.00
2019-01-15T11:35:28.776Z,66.73
2019-01-15T11:37:57.403Z,62.50
2019-01-15T11:40:26.076Z,59.07
2019-01-15T11:42:54.910Z,56.53
2019-01-15T11:45:23.498Z,50.60
2019-01-15T11:47:52.297Z,60.30
2019-01-15T11:50:21.211Z,54.37
2019-01-15T11:52:49.907Z,55.03
2019-01-15T11:55:18.503Z,54.43
2019-01-15T11:57:47.293Z,54.93
2019-01-15T12:00:22.307Z,61.87
2019-01-15T12:02:55.620Z,61.63
2019-01-15T12:05:42.074Z,52.57
2019-01-15T12:08:21.128Z,46.17
2019-01-15T12:11:08.929Z,51.37
2019-01-15T12:13:55.502Z,40.00
2019-01-15T12:16:46.255Z,50.17
2019-01-15T12:19:32.992Z,47.50
2019-01-15T12:22:25.610Z,55.47
2019-01-15T12:25:22.219Z,54.47
2019-01-15T12:28:21.870Z,49.07
2019-01-15T12:30:59.349Z,49.83
2019-01-15T12:34:02.291Z,49.43
2019-01-15T12:36:50.012Z,51.03
2019-01-15T12:39:35.275Z,50.23
2019-01-15T12:42:22.991Z,48.13
2019-01-15T12:45:18.405Z,48.37
2019-01-15T12:47:56.127Z,48.87
2019-01-15T12:50:32.026Z,51.90
2019-01-15T12:53:25.351Z,38.30
2019-01-15T12:56:11.224Z,48.83
2019-01-15T12:58:57.759Z,43.20
2019-01-15T13:01:44.206Z,47.57
2019-01-15T13:04:33.478Z,42.37
2019-01-15T13:07:18.980Z,47.80
2019-01-15T13:10:00.511Z,39.97
2019-01-15T13:12:42.294Z,42.03
2019-01-15T13:15:34.295Z,41.23
2019-01-15T13:18:12.587Z,38.93
2019-01-15T13:20:54.907Z,39.10
2019-01-15T13:23:45.476Z,37.87
2019-01-15T13:26:36.207Z,38.40
2019-01-15T13:29:35.954Z,42.10
2019-01-15T13:32:22.230Z,39.23
2019-01-15T13:35:17.689Z,41.20
2019-01-15T13:38:04.179Z,37.90
2019-01-15T13:40:50.385Z,36.97
2019-01-15T13:43:33.227Z,33.40
2019-01-15T13:46:15.216Z,24.00
2019-01-15T13:48:56.006Z,33.07
2019-01-15T13:51:58.711Z,28.83
2019-01-15T13:54:44.976Z,31.47
2019-01-15T13:57:29.854Z,32.10
2019-01-15T14:00:12.586Z,31.40
2019-01-15T14:02:51.746Z,29.20
2019-01-15T14:05:38.331Z,25.43
2019-01-15T14:08:18.253Z,37.00
2019-01-15T14:11:12.147Z,30.03
2019-01-15T14:13:58.792Z,27.03
2019-01-15T14:17:01.727Z,25.53
2019-01-15T14:19:51.996Z,29.60
2019-01-15T14:22:38.251Z,24.20
2019-01-15T14:25:28.503Z,23.50
2019-01-15T14:28:14.904Z,22.87
2019-01-15T14:31:08.781Z,26.53
2019-01-15T14:33:50.511Z,23.50
2019-01-15T14:36:56.191Z,27.97
2019-01-15T14:39:39.775Z,22.50
2019-01-15T14:42:22.052Z,31.40
2019-01-15T14:45:18.676Z,27.63
2019-01-15T14:48:16.991Z,25.03
2019-01-15T14:51:07.756Z,36.93
2019-01-15T14:53:55.418Z,23.07
2019-01-15T14:56:40.347Z,30.63
2019-01-15T14:59:37.062Z,26.57
2019-01-15T15:02:27.723Z,26.10
2019-01-15T15:05:18.255Z,28.73
2019-01-15T15:08:05.968Z,29.43
2019-01-15T15:10:52.465Z,27.53
2019-01-15T15:13:36.968Z,27.77
2019-01-15T15:16:16.125Z,33.37
2019-01-15T15:19:16.162Z,28.53
2019-01-15T15:22:02.627Z,31.33
2019-01-15T15:24:49.216Z,27.90
2019-01-15T15:27:26.871Z,28.47
2019-01-15T15:30:04.717Z,28.13
2019-01-15T15:32:52.437Z,29.90
2019-01-15T15:35:35.999Z,24.43
2019-01-15T15:38:29.028Z,26.60
2019-01-15T15:41:11.211Z,24.93
2019-01-15T15:44:01.779Z,32.30
2019-01-15T15:46:46.031Z,30.63
2019-01-15T15:49:25.776Z,36.00
2019-01-15T15:52:16.555Z,25.07
2019-01-15T15:55:02.743Z,38.53
2019-01-15T15:57:56.687Z,32.23
2019-01-15T16:00:43.013Z,32.57
2019-01-15T16:03:29.559Z,31.30
2019-01-15T16:06:20.667Z,34.87
2019-01-15T16:08:56.047Z,25.87
2019-01-15T16:11:42.819Z,34.93
2019-01-15T16:14:29.399Z,27.90
2019-01-15T16:17:23.210Z,35.53
2019-01-15T16:20:01.003Z,35.37
2019-01-15T16:22:40.156Z,24.43
2019-01-15T16:25:24.661Z,32.70
2019-01-15T16:28:18.608Z,33.67
2019-01-15T16:31:04.861Z,36.70
2019-01-15T16:33:52.602Z,33.57
2019-01-15T16:36:49.450Z,33.90
2019-01-15T16:39:37.407Z,33.40
2019-01-15T16:42:16.849Z,34.63
2019-01-15T16:44:59.892Z,31.33
2019-01-15T16:47:36.931Z,28.47
2019-01-15T16:50:25.040Z,34.30
2019-01-15T16:53:11.556Z,28.43
2019-01-15T16:56:11.569Z,40.97
2019-01-15T16:58:51.275Z,36.20
2019-01-15T17:01:41.084Z,30.10
2019-01-15T17:04:17.924Z,37.50
2019-01-15T17:07:04.434Z,39.03
2019-01-15T17:09:45.242Z,36.93
2019-01-15T17:12:31.452Z,41.43
2019-01-15T17:15:28.241Z,31.20
2019-01-15T17:18:21.913Z,32.27
2019-01-15T17:21:10.353Z,44.10
2019-01-15T17:23:45.296Z,36.90
2019-01-15T17:26:29.116Z,39.67
2019-01-15T17:29:04.339Z,40.70
2019-01-15T17:31:55.184Z,35.87
2019-01-15T17:34:43.736Z,50.97
2019-01-15T17:37:30.783Z,41.97
2019-01-15T17:40:16.565Z,40.37
2019-01-15T17:43:04.332Z,44.70
2019-01-15T17:45:44.095Z,45.80
2019-01-15T17:48:30.328Z,43.00
2019-01-15T17:51:30.182Z,38.43
2019-01-15T17:54:18.415Z,43.23
2019-01-15T17:57:04.687Z,39.07
2019-01-15T17:59:50.816Z,44.53
2019-01-15T18:02:37.411Z,41.60
2019-01-15T18:05:23.925Z,43.20
2019-01-15T18:08:10.172Z,48.40
2019-01-15T18:10:57.894Z,41.70
2019-01-15T18:13:40.683Z,44.03
2019-01-15T18:16:28.406Z,38.90
2019-01-15T18:19:16.414Z,39.63
2019-01-15T18:22:00.890Z,40.23
2019-01-15T18:24:47.542Z,44.03
2019-01-15T18:27:28.384Z,42.10
2019-01-15T18:30:19.631Z,35.60
2019-01-15T18:33:04.032Z,42.40
2019-01-15T18:35:57.835Z,37.83
2019-01-15T18:38:35.143Z,46.23
2019-01-15T18:41:21.685Z,43.67
2019-01-15T18:44:08.187Z,40.93
2019-01-15T18:47:01.844Z,49.03
2019-01-15T18:49:56.248Z,47.37
2019-01-15T18:52:42.509Z,42.60
2019-01-15T18:55:33.347Z,47.13
2019-01-15T18:58:15.267Z,45.00
2019-01-15T19:00:57.025Z,46.00
2019-01-15T19:03:43.498Z,43.90
2019-01-15T19:06:29.619Z,44.80
2019-01-15T19:09:07.274Z,46.17
2019-01-15T19:12:06.917Z,47.93
2019-01-15T19:14:46.639Z,46.60
2019-01-15T19:17:45.451Z,49.23
2019-01-15T19:20:27.230Z,45.07
2019-01-15T19:23:08.023Z,52.93
2019-01-15T19:25:53.683Z,41.70
2019-01-15T19:28:41.428Z,47.37
2019-01-15T19:31:30.627Z,42.30
2019-01-15T19:34:17.206Z,55.23
2019-01-15T19:37:19.897Z,42.20
2019-01-15T19:40:16.780Z,47.73
2019-01-15T19:43:05.247Z,46.97
2019-01-15T19:46:02.760Z,43.43
2019-01-15T19:48:43.576Z,42.27
2019-01-15T19:51:37.139Z,47.70
2019-01-15T19:54:43.157Z,48.47
2019-01-15T19:57:30.047Z,44.37
2019-01-15T20:00:12.922Z,46.13
2019-01-15T20:02:56.353Z,42.93
2019-01-15T20:05:41.232Z,42.63
2019-01-15T20:08:27.542Z,43.17
2019-01-15T20:11:10.643Z,46.40
2019-01-15T20:13:56.856Z,43.43
2019-01-15T20:16:43.408Z,49.13
2019-01-15T20:19:29.831Z,43.57
2019-01-15T20:22:14.132Z,42.40
2019-01-15T20:25:04.132Z,44.90
2019-01-15T20:27:50.335Z,43.53
2019-01-15T20:30:38.175Z,57.23
2019-01-15T20:33:13.367Z,42.10
2019-01-15T20:36:01.801Z,43.87
2019-01-15T20:38:52.379Z,45.30
2019-01-15T20:41:33.431Z,45.20
2019-01-15T20:44:15.376Z,44.23
2019-01-15T20:47:25.512Z,37.13
2019-01-15T20:50:21.751Z,37.77
2019-01-15T20:53:09.732Z,36.40
2019-01-15T20:56:03.898Z,36.30
2019-01-15T20:58:50.403Z,32.83
2019-01-15T21:01:47.414Z,36.47
2019-01-15T21:04:32.808Z,35.53
2019-01-15T21:07:17.515Z,35.17
2019-01-15T21:10:11.409Z,39.80
2019-01-15T21:13:17.563Z,31.93
2019-01-15T21:16:03.931Z,36.53
2019-01-15T21:18:41.067Z,30.20
2019-01-15T21:21:32.563Z,39.70
2019-01-15T21:24:26.406Z,34.60
2019-01-15T21:27:29.179Z,34.67
2019-01-15T21:30:15.564Z,35.37
2019-01-15T21:33:02.025Z,34.73
2019-01-15T21:35:48.303Z,35.90
2019-01-15T21:38:26.171Z,36.40
2019-01-15T21:41:13.903Z,38.60
2019-01-15T21:44:07.843Z,32.53
2019-01-15T21:46:51.315Z,32.80
2019-01-15T21:49:37.565Z,33.83
2019-01-15T21:52:16.096Z,31.63
2019-01-15T21:54:54.111Z,34.10
2019-01-15T21:57:35.194Z,32.20
2019-01-15T22:00:16.573Z,35.60
2019-01-15T22:03:04.297Z,34.30
2019-01-15T22:05:54.826Z,33.00
2019-01-15T22:08:41.489Z,39.63
2019-01-15T22:11:23.287Z,28.80
2019-01-15T22:14:08.071Z,36.00
2019-01-15T22:17:10.824Z,34.67
2019-01-15T22:19:52.603Z,31.27
2019-01-15T22:22:42.022Z,35.17
2019-01-15T22:25:27.527Z,39.90
2019-01-15T22:28:18.178Z,42.80
2019-01-15T22:31:00.290Z,43.73
2019-01-15T22:33:54.058Z,43.07
2019-01-15T22:36:40.475Z,48.03
2019-01-15T22:39:16.302Z,43.00
2019-01-15T22:41:55.938Z,39.43
2019-01-15T22:44:33.009Z,38.10
2019-01-15T22:47:19.586Z,36.27
2019-01-15T22:50:06.360Z,38.47
2019-01-15T22:52:54.190Z,38.77
2019-01-15T22:55:40.600Z,36.90
2019-01-15T22:58:19.931Z,37.67
2019-01-15T23:01:07.391Z,39.17
2019-01-15T23:03:58.375Z,40.97
2019-01-15T23:06:52.040Z,47.83
2019-01-15T23:09:29.354Z,49.47
2019-01-15T23:12:15.626Z,44.53
2019-01-15T23:14:58.906Z,42.60
2019-01-15T23:17:41.664Z,47.80
2019-01-15T23:20:28.623Z,48.33
2019-01-15T23:23:28.730Z,47.17
2019-01-15T23:26:14.927Z,44.20
2019-01-15T23:29:01.548Z,44.73
2019-01-15T23:31:47.995Z,49.23
2019-01-15T23:34:34.194Z,50.63
2019-01-15T23:37:20.339Z,48.40
2019-01-15T23:40:08.839Z,50.50
2019-01-15T23:42:53.649Z,48.57
2019-01-15T23:45:31.614Z,54.10
2019-01-15T23:48:18.667Z,49.03
2019-01-15T23:53:54.881Z,52.17
2019-01-15T23:56:54.240Z,51.50
2019-01-15T23:59:54.227Z,55.20
